createdAt,value
2019-03-04T00:01:39.909Z,97.10
2019-03-04T00:04:09.439Z,97.02
2019-03-04T00:06:38.851Z,96.90
2019-03-04T00:09:09.855Z,96.16
2019-03-04T00:11:39.367Z,96.65
2019-03-04T00:14:09.311Z,96.61
2019-03-04T00:16:38.845Z,95.84
2019-03-04T00:19:08.364Z,95.42
2019-03-04T00:21:37.870Z,95.44
2019-03-04T00:24:07.369Z,95.96
2019-03-04T00:26:36.763Z,95.79
2019-03-04T00:29:06.345Z,95.29
2019-03-04T00:31:35.990Z,95.17
2019-03-04T00:34:05.393Z,95.20
2019-03-04T00:36:34.795Z,94.44
2019-03-04T00:39:05.925Z,95.76
2019-03-04T00:41:35.721Z,96.03
2019-03-04T00:44:05.178Z,95.49
2019-03-04T00:46:35.166Z,94.82
2019-03-04T00:49:04.569Z,94.15
2019-03-04T00:51:33.982Z,94.11
2019-03-04T00:54:03.522Z,94.78
2019-03-04T00:56:32.996Z,94.85
2019-03-04T00:59:02.430Z,95.01
2019-03-04T01:01:31.879Z,95.45
2019-03-04T01:04:01.373Z,95.64
2019-03-04T01:06:30.878Z,95.63
2019-03-04T01:09:00.343Z,95.85
2019-03-04T01:11:29.743Z,96.14
2019-03-04T01:13:59.236Z,96.36
2019-03-04T01:16:28.778Z,96.43
2019-03-04T01:18:58.164Z,96.84
2019-03-04T01:21:27.561Z,97.02
2019-03-04T01:23:57.682Z,97.09
2019-03-04T01:26:27.086Z,97.29
2019-03-04T01:28:56.612Z,97.10
2019-03-04T01:31:26.144Z,97.21
2019-03-04T01:33:55.555Z,97.21
2019-03-04T01:36:24.969Z,97.37
2019-03-04T01:38:54.701Z,97.51
2019-03-04T01:41:24.190Z,97.58
2019-03-04T01:43:53.676Z,97.45
2019-03-04T01:46:23.129Z,97.35
2019-03-04T01:48:52.625Z,97.47
2019-03-04T01:51:22.111Z,97.44
2019-03-04T01:53:51.548Z,97.37
2019-03-04T01:56:20.953Z,97.95
2019-03-04T01:58:50.430Z,98.30
2019-03-04T02:01:19.983Z,98.67
2019-03-04T02:03:49.368Z,99.35
2019-03-04T02:06:18.850Z,99.48
2019-03-04T02:08:48.304Z,99.65
2019-03-04T02:11:17.701Z,100.00
2019-03-04T02:13:47.193Z,100.00
2019-03-04T02:16:16.773Z,100.00
2019-03-04T02:18:46.190Z,100.00
2019-03-04T02:21:15.598Z,100.00
2019-03-04T02:23:45.145Z,100.00
2019-03-04T02:26:21.879Z,100.00
2019-03-04T02:28:51.386Z,100.00
2019-03-04T02:31:20.799Z,100.00
2019-03-04T02:33:50.294Z,100.00
2019-03-04T02:36:20.333Z,100.00
2019-03-04T02:38:49.729Z,100.00
2019-03-04T02:41:19.119Z,100.00
2019-03-04T02:43:48.668Z,100.00
2019-03-04T02:46:18.093Z,100.00
2019-03-04T02:48:47.605Z,100.00
2019-03-04T02:51:17.163Z,100.00
2019-03-04T02:53:47.059Z,100.00
2019-03-04T02:56:16.478Z,100.00
2019-03-04T02:58:46.034Z,100.00
2019-03-04T03:01:15.818Z,100.00
2019-03-04T03:03:45.234Z,100.00
2019-03-04T03:06:14.678Z,100.00
2019-03-04T03:08:44.183Z,100.00
2019-03-04T03:11:13.689Z,100.00
2019-03-04T03:13:43.138Z,100.00
2019-03-04T03:16:12.550Z,100.00
2019-03-04T03:18:42.036Z,100.00
2019-03-04T03:21:11.710Z,100.00
2019-03-04T03:23:41.111Z,100.00
2019-03-04T03:26:10.617Z,100.00
2019-03-04T03:28:40.069Z,100.00
2019-03-04T03:31:09.474Z,100.00
2019-03-04T03:33:38.979Z,100.00
2019-03-04T03:36:08.528Z,100.00
2019-03-04T03:38:37.931Z,100.00
2019-03-04T03:41:07.725Z,100.00
2019-03-04T03:43:37.364Z,100.00
2019-03-04T03:46:07.472Z,100.00
2019-03-04T03:48:36.866Z,100.00
2019-03-04T03:51:06.563Z,100.00
2019-03-04T03:53:36.054Z,100.00
2019-03-04T03:56:05.774Z,100.00
2019-03-04T03:58:35.488Z,100.00
2019-03-04T04:01:04.926Z,100.00
2019-03-04T04:03:34.411Z,100.00
2019-03-04T04:06:04.075Z,100.00
2019-03-04T04:08:33.497Z,100.00
2019-03-04T04:11:02.891Z,100.00
2019-03-04T04:13:32.632Z,100.00
2019-03-04T04:16:02.121Z,100.00
2019-03-04T04:18:31.518Z,100.00
2019-03-04T04:21:01.019Z,100.00
2019-03-04T04:23:30.516Z,100.00
2019-03-04T04:26:00.020Z,100.00
2019-03-04T04:28:30.945Z,100.00
2019-03-04T04:31:00.338Z,100.00
2019-03-04T04:33:29.827Z,100.00
2019-03-04T04:35:59.394Z,100.00
2019-03-04T04:38:28.799Z,100.00
2019-03-04T04:40:58.215Z,100.00
2019-03-04T04:43:27.881Z,100.00
2019-03-04T04:45:57.465Z,100.00
2019-03-04T04:48:27.035Z,100.00
2019-03-04T04:50:56.592Z,100.00
2019-03-04T04:53:26.017Z,100.00
2019-03-04T04:55:55.439Z,100.00
2019-03-04T04:58:25.007Z,100.00
2019-03-04T05:00:54.517Z,100.00
2019-03-04T05:03:23.907Z,100.00
2019-03-04T05:05:53.395Z,100.00
2019-03-04T05:08:22.909Z,100.00
2019-03-04T05:10:52.420Z,100.00
2019-03-04T05:13:21.890Z,100.00
2019-03-04T05:15:51.316Z,100.00
2019-03-04T05:18:20.822Z,100.00
2019-03-04T05:20:50.377Z,100.00
2019-03-04T05:23:19.830Z,100.00
2019-03-04T05:25:49.373Z,100.00
2019-03-04T05:28:18.826Z,100.00
2019-03-04T05:30:48.239Z,100.00
2019-03-04T05:33:17.758Z,100.00
2019-03-04T05:35:47.388Z,100.00
2019-03-04T05:38:16.769Z,100.00
2019-03-04T05:40:46.190Z,100.00
2019-03-04T05:43:15.903Z,100.00
2019-03-04T05:45:45.532Z,100.00
2019-03-04T05:48:14.988Z,100.00
2019-03-04T05:50:44.880Z,100.00
2019-03-04T05:53:14.407Z,100.00
2019-03-04T05:55:43.970Z,100.00
2019-03-04T05:58:13.445Z,100.00
2019-03-04T06:00:43.550Z,100.00
2019-03-04T06:03:13.774Z,100.00
2019-03-04T06:05:43.230Z,100.00
2019-03-04T06:08:12.813Z,100.00
2019-03-04T06:10:42.305Z,100.00
2019-03-04T06:13:11.762Z,100.00
2019-03-04T06:15:41.200Z,100.00
2019-03-04T06:18:10.747Z,100.00
2019-03-04T06:20:40.432Z,100.00
2019-03-04T06:23:09.847Z,100.00
2019-03-04T06:25:39.277Z,100.00
2019-03-04T06:28:08.982Z,100.00
2019-03-04T06:30:38.514Z,100.00
2019-03-04T06:33:08.009Z,100.00
2019-03-04T06:35:37.643Z,100.00
2019-03-04T06:38:07.146Z,100.00
2019-03-04T06:40:36.837Z,100.00
2019-03-04T06:43:06.463Z,100.00
2019-03-04T06:45:36.089Z,100.00
2019-03-04T06:48:05.543Z,100.00
2019-03-04T06:50:54.736Z,100.00
2019-03-04T06:53:37.600Z,100.00
2019-03-04T06:56:30.053Z,100.00
2019-03-04T06:59:13.251Z,100.00
2019-03-04T07:01:47.120Z,100.00
2019-03-04T07:04:28.139Z,100.00
2019-03-04T07:06:57.716Z,100.00
2019-03-04T07:09:27.137Z,100.00
2019-03-04T07:11:56.567Z,100.00
2019-03-04T07:14:26.139Z,100.00
2019-03-04T07:16:55.640Z,100.00
2019-03-04T07:19:30.128Z,100.00
2019-03-04T07:21:59.586Z,99.93
2019-03-04T07:24:29.136Z,99.37
2019-03-04T07:26:58.577Z,98.93
2019-03-04T07:29:28.169Z,98.21
2019-03-04T07:31:57.752Z,97.43
2019-03-04T07:34:27.328Z,96.37
2019-03-04T07:36:56.743Z,95.54
2019-03-04T07:39:26.275Z,94.22
2019-03-04T07:41:57.459Z,93.49
2019-03-04T07:44:26.888Z,92.96
2019-03-04T07:46:56.326Z,92.31
2019-03-04T07:49:26.247Z,90.95
2019-03-04T07:51:55.767Z,90.69
2019-03-04T07:54:25.197Z,90.55
2019-03-04T07:56:54.860Z,91.39
2019-03-04T07:59:24.468Z,89.74
2019-03-04T08:01:54.002Z,89.48
2019-03-04T08:04:23.477Z,89.61
2019-03-04T08:07:05.271Z,89.28
2019-03-04T08:10:09.700Z,88.25
2019-03-04T08:13:16.172Z,87.29
2019-03-04T08:15:48.633Z,86.90
2019-03-04T08:18:18.189Z,85.16
2019-03-04T08:20:47.717Z,84.60
2019-03-04T08:23:17.395Z,84.47
2019-03-04T08:25:46.862Z,83.94
2019-03-04T08:28:16.724Z,81.60
2019-03-04T08:30:46.188Z,81.12
2019-03-04T08:33:15.616Z,81.37
2019-03-04T08:35:45.147Z,79.81
2019-03-04T08:38:14.930Z,78.96
2019-03-04T08:40:44.445Z,78.83
2019-03-04T08:43:13.902Z,78.50
2019-03-04T08:45:43.539Z,76.93
2019-03-04T08:48:13.103Z,76.75
2019-03-04T08:50:42.609Z,76.75
2019-03-04T08:53:12.148Z,76.02
2019-03-04T08:55:41.547Z,76.13
2019-03-04T08:58:11.251Z,76.46
2019-03-04T09:00:41.110Z,75.93
2019-03-04T09:03:10.620Z,74.60
2019-03-04T09:05:40.033Z,72.83
2019-03-04T09:08:09.540Z,72.36
2019-03-04T09:10:39.080Z,71.56
2019-03-04T09:13:08.531Z,71.88
2019-03-04T09:15:38.041Z,70.73
2019-03-04T09:18:07.443Z,70.78
2019-03-04T09:20:37.061Z,71.80
2019-03-04T09:23:07.308Z,69.68
2019-03-04T09:25:42.663Z,68.55
2019-03-04T09:28:12.116Z,67.69
2019-03-04T09:30:41.610Z,67.44
2019-03-04T09:33:11.153Z,68.82
2019-03-04T09:35:40.816Z,68.86
2019-03-04T09:38:10.221Z,67.98
2019-03-04T09:40:39.817Z,66.35
2019-03-04T09:43:09.666Z,65.73
2019-03-04T09:45:39.537Z,66.00
2019-03-04T09:48:09.196Z,64.15
2019-03-04T09:50:39.500Z,63.74
2019-03-04T09:53:39.942Z,65.05
2019-03-04T09:56:06.293Z,65.12
2019-03-04T09:58:36.108Z,64.09
2019-03-04T10:01:22.267Z,63.41
2019-03-04T10:04:14.878Z,63.87
2019-03-04T10:07:07.156Z,62.67
2019-03-04T10:10:26.886Z,61.94
2019-03-04T10:13:25.235Z,61.92
2019-03-04T10:16:08.200Z,62.01
2019-03-04T10:19:29.830Z,61.78
2019-03-04T10:22:43.543Z,61.67
2019-03-04T10:25:44.336Z,60.64
2019-03-04T10:28:53.078Z,60.12
2019-03-04T10:31:47.592Z,59.39
2019-03-04T10:35:00.569Z,58.14
2019-03-04T10:38:11.408Z,57.32
2019-03-04T10:41:31.028Z,56.80
2019-03-04T10:44:42.810Z,55.87
2019-03-04T10:47:12.468Z,56.50
2019-03-04T10:49:41.974Z,56.43
2019-03-04T10:52:11.587Z,55.59
2019-03-04T10:54:41.173Z,54.59
2019-03-04T10:57:10.644Z,54.31
2019-03-04T10:59:40.698Z,54.13
2019-03-04T11:02:10.201Z,53.66
2019-03-04T11:04:40.038Z,54.36
2019-03-04T11:07:09.539Z,53.92
2019-03-04T11:09:39.028Z,53.26
2019-03-04T11:12:09.132Z,53.09
2019-03-04T11:14:38.747Z,52.37
2019-03-04T11:17:08.192Z,51.72
2019-03-04T11:19:37.692Z,52.31
2019-03-04T11:22:07.567Z,52.14
2019-03-04T11:24:38.178Z,51.88
2019-03-04T11:27:07.898Z,50.46
2019-03-04T11:29:37.768Z,48.83
2019-03-04T11:32:08.153Z,49.22
2019-03-04T11:34:37.630Z,48.21
2019-03-04T11:37:07.222Z,48.06
2019-03-04T11:40:04.576Z,47.25
2019-03-04T11:42:34.237Z,47.34
2019-03-04T11:45:04.080Z,46.68
2019-03-04T11:47:33.633Z,46.06
2019-03-04T11:50:03.096Z,45.66
2019-03-04T11:52:32.507Z,46.60
2019-03-04T11:55:02.063Z,45.04
2019-03-04T11:57:31.908Z,45.38
2019-03-04T12:00:01.327Z,45.77
2019-03-04T12:02:39.000Z,46.05
2019-03-04T12:05:03.536Z,46.08
2019-03-04T12:07:33.122Z,45.71
2019-03-04T12:10:02.525Z,45.93
2019-03-04T12:12:32.294Z,45.83
2019-03-04T12:15:02.147Z,45.71
2019-03-04T12:17:31.638Z,45.87
2019-03-04T12:20:01.297Z,45.14
2019-03-04T12:22:30.918Z,45.00
2019-03-04T12:25:00.409Z,44.63
2019-03-04T12:27:29.963Z,44.11
2019-03-04T12:29:59.476Z,43.40
2019-03-04T12:32:36.083Z,43.30
2019-03-04T12:35:08.862Z,43.20
2019-03-04T12:37:38.260Z,42.90
2019-03-04T12:40:09.676Z,42.36
2019-03-04T12:42:39.152Z,42.24
2019-03-04T12:45:10.591Z,42.37
2019-03-04T12:47:40.129Z,42.78
2019-03-04T12:50:13.133Z,42.10
2019-03-04T12:52:42.650Z,41.83
2019-03-04T12:55:12.748Z,41.43
2019-03-04T12:57:43.609Z,41.24
2019-03-04T13:00:16.356Z,40.62
2019-03-04T13:02:45.945Z,40.47
2019-03-04T13:05:15.662Z,40.34
2019-03-04T13:07:45.393Z,40.81
2019-03-04T13:10:15.706Z,40.68
2019-03-04T13:12:46.132Z,40.35
2019-03-04T13:15:18.101Z,40.19
2019-03-04T13:17:49.770Z,39.96
2019-03-04T13:20:19.486Z,39.70
2019-03-04T13:22:54.768Z,39.78
2019-03-04T13:25:24.704Z,40.18
2019-03-04T13:27:54.719Z,39.61
2019-03-04T13:30:24.761Z,39.40
2019-03-04T13:32:54.228Z,39.34
2019-03-04T13:35:25.033Z,39.24
2019-03-04T13:37:54.738Z,39.17
2019-03-04T13:40:24.234Z,39.17
2019-03-04T13:42:53.863Z,39.18
2019-03-04T13:45:23.943Z,39.57
2019-03-04T13:47:53.661Z,40.07
2019-03-04T13:50:24.454Z,40.44
2019-03-04T13:52:54.564Z,40.64
2019-03-04T13:55:24.124Z,39.70
2019-03-04T13:57:53.620Z,39.46
2019-03-04T14:00:23.350Z,39.03
2019-03-04T14:02:52.935Z,39.21
2019-03-04T14:05:22.551Z,39.09
2019-03-04T14:07:52.238Z,39.20
2019-03-04T14:10:21.905Z,39.20
2019-03-04T14:12:51.409Z,39.00
2019-03-04T14:15:26.989Z,38.98
2019-03-04T14:17:56.627Z,39.60
2019-03-04T14:20:27.340Z,40.26
2019-03-04T14:22:57.986Z,39.95
2019-03-04T14:25:27.679Z,40.00
2019-03-04T14:27:58.024Z,40.55
2019-03-04T14:30:27.604Z,40.63
2019-03-04T14:32:57.094Z,40.10
2019-03-04T14:35:26.595Z,39.83
2019-03-04T14:37:56.355Z,40.11
2019-03-04T14:40:28.303Z,40.18
2019-03-04T14:42:58.335Z,40.21
2019-03-04T14:45:27.951Z,40.25
2019-03-04T14:47:57.575Z,40.41
2019-03-04T14:50:28.519Z,40.76
2019-03-04T14:52:58.230Z,40.16
2019-03-04T14:55:27.747Z,40.50
2019-03-04T14:57:57.305Z,40.13
2019-03-04T15:00:33.697Z,40.16
2019-03-04T15:03:03.414Z,40.17
2019-03-04T15:05:32.923Z,40.47
2019-03-04T15:08:02.409Z,40.40
2019-03-04T15:10:32.022Z,40.41
2019-03-04T15:13:01.451Z,40.48
2019-03-04T15:15:32.721Z,40.83
2019-03-04T15:18:02.363Z,41.16
2019-03-04T15:20:33.613Z,41.09
2019-03-04T15:23:03.116Z,41.28
2019-03-04T15:25:32.809Z,41.21
2019-03-04T15:28:21.621Z,41.33
2019-03-04T15:30:53.704Z,41.61
2019-03-04T15:33:23.161Z,41.47
2019-03-04T15:35:52.772Z,41.43
2019-03-04T15:38:23.984Z,41.53
2019-03-04T15:40:54.115Z,41.87
2019-03-04T15:43:24.152Z,41.91
2019-03-04T15:45:54.380Z,42.21
2019-03-04T15:48:25.145Z,42.45
2019-03-04T15:50:55.876Z,43.28
2019-03-04T15:53:25.594Z,43.16
2019-03-04T15:55:55.237Z,43.26
2019-03-04T15:58:24.778Z,43.46
2019-03-04T16:00:54.613Z,43.03
2019-03-04T16:03:25.641Z,43.27
2019-03-04T16:05:55.090Z,43.48
2019-03-04T16:08:24.539Z,43.59
2019-03-04T16:10:54.263Z,44.09
2019-03-04T16:13:23.748Z,43.95
2019-03-04T16:15:53.212Z,43.94
2019-03-04T16:18:22.812Z,44.31
2019-03-04T16:20:52.222Z,44.23
2019-03-04T16:23:21.711Z,44.25
2019-03-04T16:25:51.177Z,44.57
2019-03-04T16:28:23.541Z,44.43
2019-03-04T16:30:53.085Z,44.92
2019-03-04T16:33:28.630Z,45.19
2019-03-04T16:35:58.221Z,45.52
2019-03-04T16:38:27.707Z,45.59
2019-03-04T16:40:57.124Z,45.77
2019-03-04T16:43:26.703Z,46.12
2019-03-04T16:45:56.219Z,46.59
2019-03-04T16:48:26.115Z,47.08
2019-03-04T16:50:55.817Z,47.35
2019-03-04T16:53:25.469Z,47.48
2019-03-04T16:55:54.988Z,47.72
2019-03-04T16:58:24.472Z,47.71
2019-03-04T17:00:54.078Z,48.04
2019-03-04T17:03:23.815Z,48.26
2019-03-04T17:05:53.433Z,48.57
2019-03-04T17:08:22.886Z,48.97
2019-03-04T17:10:52.405Z,48.81
2019-03-04T17:13:22.004Z,48.71
2019-03-04T17:15:51.516Z,49.15
2019-03-04T17:18:20.962Z,49.33
2019-03-04T17:20:50.674Z,49.71
2019-03-04T17:23:20.282Z,50.08
2019-03-04T17:25:49.686Z,50.26
2019-03-04T17:28:19.568Z,50.29
2019-03-04T17:30:49.185Z,50.22
2019-03-04T17:33:18.798Z,50.53
2019-03-04T17:35:48.281Z,50.86
2019-03-04T17:38:17.711Z,51.01
2019-03-04T17:40:47.221Z,51.03
2019-03-04T17:43:16.966Z,51.23
2019-03-04T17:45:46.446Z,51.36
2019-03-04T17:48:16.058Z,51.53
2019-03-04T17:50:46.707Z,51.72
2019-03-04T17:53:16.263Z,51.77
2019-03-04T17:55:45.659Z,52.29
2019-03-04T17:58:17.340Z,52.87
2019-03-04T18:00:52.186Z,52.88
2019-03-04T18:03:21.711Z,53.19
2019-03-04T18:05:51.454Z,53.35
2019-03-04T18:08:20.880Z,53.38
2019-03-04T18:10:50.446Z,54.13
2019-03-04T18:13:19.951Z,54.18
2019-03-04T18:15:49.457Z,54.19
2019-03-04T18:18:19.163Z,54.34
2019-03-04T18:20:48.634Z,54.95
2019-03-04T18:23:18.152Z,55.63
2019-03-04T18:25:51.202Z,55.44
2019-03-04T18:28:41.217Z,55.73
2019-03-04T18:31:32.421Z,56.50
2019-03-04T18:34:31.253Z,56.80
2019-03-04T18:37:40.552Z,57.22
2019-03-04T18:40:25.966Z,57.65
2019-03-04T18:43:21.324Z,57.40
2019-03-04T18:46:27.808Z,56.69
2019-03-04T18:49:01.604Z,56.94
2019-03-04T18:51:36.194Z,57.68
2019-03-04T18:54:11.650Z,58.24
2019-03-04T18:56:43.661Z,58.74
2019-03-04T18:59:13.249Z,58.75
2019-03-04T19:01:42.876Z,59.37
2019-03-04T19:04:12.452Z,59.24
2019-03-04T19:06:41.982Z,58.90
2019-03-04T19:09:11.837Z,58.19
2019-03-04T19:11:41.486Z,58.48
2019-03-04T19:14:11.370Z,58.70
2019-03-04T19:16:41.170Z,58.63
2019-03-04T19:19:10.590Z,58.04
2019-03-04T19:21:40.017Z,57.95
2019-03-04T19:24:09.759Z,58.14
2019-03-04T19:26:39.374Z,57.85
2019-03-04T19:29:10.819Z,57.76
2019-03-04T19:31:39.936Z,57.81
2019-03-04T19:34:09.468Z,57.79
2019-03-04T19:36:38.987Z,58.17
2019-03-04T19:39:09.271Z,58.10
2019-03-04T19:41:38.879Z,58.42
2019-03-04T19:44:08.292Z,58.87
2019-03-04T19:46:37.873Z,59.14
2019-03-04T19:49:07.457Z,59.31
2019-03-04T19:51:36.972Z,59.57
2019-03-04T19:54:06.413Z,59.67
2019-03-04T19:56:35.868Z,60.28
2019-03-04T19:59:05.714Z,60.85
2019-03-04T20:01:35.403Z,61.25
2019-03-04T20:04:04.803Z,61.72
2019-03-04T20:06:34.239Z,62.32
2019-03-04T20:09:05.819Z,62.47
2019-03-04T20:11:35.398Z,62.73
2019-03-04T20:14:04.787Z,63.24
2019-03-04T20:16:34.269Z,63.72
2019-03-04T20:19:03.755Z,64.42
2019-03-04T20:21:33.242Z,64.81
2019-03-04T20:24:02.778Z,65.40
2019-03-04T20:26:32.198Z,65.94
2019-03-04T20:29:01.704Z,66.34
2019-03-04T20:31:31.316Z,66.15
2019-03-04T20:34:00.741Z,66.17
2019-03-04T20:36:32.455Z,66.51
2019-03-04T20:39:02.154Z,67.00
2019-03-04T20:41:32.099Z,67.42
2019-03-04T20:44:01.587Z,67.94
2019-03-04T20:46:31.207Z,68.34
2019-03-04T20:49:00.708Z,68.75
2019-03-04T20:51:30.180Z,69.42
2019-03-04T20:53:59.840Z,69.91
2019-03-04T20:56:29.265Z,70.36
2019-03-04T20:58:58.858Z,70.88
2019-03-04T21:01:28.603Z,70.98
2019-03-04T21:03:58.217Z,71.06
2019-03-04T21:06:27.793Z,71.54
2019-03-04T21:08:57.239Z,72.26
2019-03-04T21:11:26.660Z,72.68
2019-03-04T21:13:56.155Z,73.07
2019-03-04T21:16:25.833Z,73.58
2019-03-04T21:18:55.361Z,73.67
2019-03-04T21:21:24.786Z,73.71
2019-03-04T21:23:54.322Z,73.92
2019-03-04T21:26:26.570Z,74.49
2019-03-04T21:29:29.939Z,74.87
2019-03-04T21:32:00.708Z,74.95
2019-03-04T21:35:26.501Z,75.07
2019-03-04T21:37:56.341Z,75.80
2019-03-04T21:40:55.314Z,76.51
2019-03-04T21:43:38.177Z,77.09
2019-03-04T21:46:38.478Z,77.61
2019-03-04T21:49:10.293Z,78.27
2019-03-04T21:52:32.296Z,79.02
2019-03-04T21:55:03.254Z,79.56
2019-03-04T21:57:48.405Z,79.92
2019-03-04T22:00:25.857Z,80.10
2019-03-04T22:03:18.944Z,80.42
2019-03-04T22:05:50.488Z,81.07
2019-03-04T22:08:19.657Z,81.56
2019-03-04T22:10:49.092Z,81.85
2019-03-04T22:13:19.098Z,82.22
2019-03-04T22:15:48.689Z,82.27
2019-03-04T22:18:18.237Z,82.61
2019-03-04T22:20:47.802Z,82.83
2019-03-04T22:23:17.450Z,83.05
2019-03-04T22:25:47.090Z,83.15
2019-03-04T22:28:16.607Z,83.30
2019-03-04T22:30:46.109Z,83.29
2019-03-04T22:33:15.892Z,83.52
2019-03-04T22:35:45.598Z,84.08
2019-03-04T22:38:15.295Z,84.36
2019-03-04T22:40:45.020Z,85.03
2019-03-04T22:43:14.404Z,85.59
2019-03-04T22:45:43.818Z,85.26
2019-03-04T22:48:13.349Z,85.59
2019-03-04T22:50:42.831Z,85.70
2019-03-04T22:53:12.262Z,85.87
2019-03-04T22:55:41.695Z,86.09
2019-03-04T22:58:11.263Z,86.35
2019-03-04T23:01:41.985Z,87.07
2019-03-04T23:04:31.794Z,87.25
2019-03-04T23:07:16.617Z,86.23
2019-03-04T23:10:23.128Z,85.60
2019-03-04T23:13:33.389Z,85.80
2019-03-04T23:16:03.985Z,86.21
2019-03-04T23:18:33.469Z,86.83
2019-03-04T23:21:03.075Z,87.25
2019-03-04T23:23:32.474Z,87.94
2019-03-04T23:26:01.955Z,88.30
2019-03-04T23:28:32.166Z,88.76
2019-03-04T23:31:01.555Z,89.27
2019-03-04T23:33:30.957Z,89.59
2019-03-04T23:36:00.484Z,89.64
2019-03-04T23:38:30.456Z,89.46
2019-03-04T23:40:59.900Z,89.04
2019-03-04T23:43:29.688Z,88.63
2019-03-04T23:45:59.190Z,88.84
2019-03-04T23:48:28.598Z,89.14
2019-03-04T23:50:58.164Z,89.63
2019-03-04T23:53:27.761Z,89.21
2019-03-04T23:55:57.190Z,88.91
2019-03-04T23:58:27.771Z,89.00
